KMMU/MMU METAR and TAF weather

Enter ICAO airport designator
Station Type Date Time Source
KMMU METAR 2019/02/16 07:15 UTC NOAA

KMMU 160715Z AUTO 34008KT 10SM CLR 04/M03 A2976 RMK AO2


Station Type Date Time Source
KMMU Decoded METAR 2019/02/16 07:15 UTC NOAA

Morristown Municipal, NJ, United States (KMMU) 40-48N 074-25W
Feb 16, 2019 - 02:15 AM EST / 2019.02.16 0715 UTC
Wind: from the NNW (340 degrees) at 9 MPH (8 KT):0
Visibility: 10 mile(s):0
Sky conditions: clear
Temperature: 39 F (4 C)
Dew Point: 26 F (-3 C)
Relative Humidity: 60%
Pressure (altimeter): 29.76 in. Hg (1007 hPa)
ob: KMMU 160715Z AUTO 34008KT 10SM CLR 04/M03 A2976 RMK AO2
cycle: 7

Station Type Date Time Source
KMMU TAF UTC NOAA

Error!


Example: see airport list